sensor_id;sensor_type;location;lat;lon;timestamp;P1;durP1;ratioP1;P2;durP2;ratioP2
81392;SDS011;71503;47.056;15.444;2023-07-16T00:01:52;7.15;;;5.47;;
81392;SDS011;71503;47.056;15.444;2023-07-16T00:04:18;9.20;;;5.65;;
81392;SDS011;71503;47.056;15.444;2023-07-16T00:06:44;11.43;;;6.75;;
81392;SDS011;71503;47.056;15.444;2023-07-16T00:09:11;7.22;;;5.18;;
81392;SDS011;71503;47.056;15.444;2023-07-16T00:11:37;9.20;;;6.00;;
81392;SDS011;71503;47.056;15.444;2023-07-16T00:14:03;8.20;;;5.97;;
81392;SDS011;71503;47.056;15.444;2023-07-16T00:16:29;6.55;;;5.45;;
81392;SDS011;71503;47.056;15.444;2023-07-16T00:18:55;8.38;;;6.07;;
81392;SDS011;71503;47.056;15.444;2023-07-16T00:21:21;9.40;;;5.47;;
81392;SDS011;71503;47.056;15.444;2023-07-16T00:23:46;7.40;;;5.50;;
81392;SDS011;71503;47.056;15.444;2023-07-16T00:26:13;7.35;;;5.70;;
81392;SDS011;71503;47.056;15.444;2023-07-16T00:28:39;7.38;;;5.38;;
81392;SDS011;71503;47.056;15.444;2023-07-16T00:31:05;9.48;;;6.35;;
81392;SDS011;71503;47.056;15.444;2023-07-16T00:33:31;9.48;;;5.60;;
81392;SDS011;71503;47.056;15.444;2023-07-16T00:35:56;8.18;;;6.13;;
81392;SDS011;71503;47.056;15.444;2023-07-16T00:38:22;14.90;;;6.97;;
81392;SDS011;71503;47.056;15.444;2023-07-16T00:40:48;8.80;;;6.18;;
81392;SDS011;71503;47.056;15.444;2023-07-16T00:43:14;8.38;;;6.25;;
81392;SDS011;71503;47.056;15.444;2023-07-16T00:45:41;7.00;;;5.25;;
81392;SDS011;71503;47.056;15.444;2023-07-16T00:50:36;7.93;;;5.47;;
81392;SDS011;71503;47.056;15.444;2023-07-16T00:53:07;9.43;;;5.78;;
81392;SDS011;71503;47.056;15.444;2023-07-16T00:55:37;8.93;;;7.55;;
81392;SDS011;71503;47.056;15.444;2023-07-16T00:58:05;8.30;;;6.38;;
81392;SDS011;71503;47.056;15.444;2023-07-16T01:00:33;10.88;;;5.63;;
81392;SDS011;71503;47.056;15.444;2023-07-16T01:03:03;7.80;;;6.10;;
81392;SDS011;71503;47.056;15.444;2023-07-16T01:05:34;8.15;;;6.20;;
81392;SDS011;71503;47.056;15.444;2023-07-16T01:08:34;9.25;;;6.53;;
81392;SDS011;71503;47.056;15.444;2023-07-16T01:11:13;7.53;;;5.78;;
81392;SDS011;71503;47.056;15.444;2023-07-16T01:13:40;11.63;;;6.88;;
81392;SDS011;71503;47.056;15.444;2023-07-16T01:16:17;9.43;;;6.47;;
81392;SDS011;71503;47.056;15.444;2023-07-16T01:18:47;9.75;;;6.10;;
81392;SDS011;71503;47.056;15.444;2023-07-16T01:21:14;8.05;;;6.50;;
81392;SDS011;71503;47.056;15.444;2023-07-16T01:24:03;11.02;;;7.05;;
81392;SDS011;71503;47.056;15.444;2023-07-16T01:29:42;9.73;;;6.18;;
81392;SDS011;71503;47.056;15.444;2023-07-16T01:32:15;8.55;;;6.85;;
81392;SDS011;71503;47.056;15.444;2023-07-16T01:34:42;10.00;;;6.57;;
81392;SDS011;71503;47.056;15.444;2023-07-16T01:37:09;7.93;;;6.80;;
81392;SDS011;71503;47.056;15.444;2023-07-16T01:39:36;8.30;;;6.38;;
81392;SDS011;71503;47.056;15.444;2023-07-16T01:42:02;8.07;;;6.65;;
81392;SDS011;71503;47.056;15.444;2023-07-16T01:44:29;7.82;;;5.72;;
81392;SDS011;71503;47.056;15.444;2023-07-16T01:47:08;12.23;;;7.15;;
81392;SDS011;71503;47.056;15.444;2023-07-16T01:49:39;8.27;;;5.95;;
81392;SDS011;71503;47.056;15.444;2023-07-16T01:52:07;8.13;;;6.18;;
81392;SDS011;71503;47.056;15.444;2023-07-16T01:54:34;11.63;;;6.75;;
81392;SDS011;71503;47.056;15.444;2023-07-16T01:57:01;11.15;;;6.13;;
81392;SDS011;71503;47.056;15.444;2023-07-16T01:59:27;6.82;;;5.85;;
81392;SDS011;71503;47.056;15.444;2023-07-16T02:01:53;7.78;;;6.22;;
81392;SDS011;71503;47.056;15.444;2023-07-16T02:04:19;8.43;;;6.15;;
81392;SDS011;71503;47.056;15.444;2023-07-16T02:06:45;7.78;;;6.20;;
81392;SDS011;71503;47.056;15.444;2023-07-16T02:09:13;9.15;;;5.97;;
81392;SDS011;71503;47.056;15.444;2023-07-16T02:11:39;9.35;;;6.45;;
81392;SDS011;71503;47.056;15.444;2023-07-16T02:14:05;8.90;;;6.38;;
81392;SDS011;71503;47.056;15.444;2023-07-16T02:16:31;8.50;;;6.43;;
81392;SDS011;71503;47.056;15.444;2023-07-16T02:18:57;8.43;;;6.70;;
81392;SDS011;71503;47.056;15.444;2023-07-16T02:21:23;9.23;;;6.75;;
81392;SDS011;71503;47.056;15.444;2023-07-16T02:23:48;11.57;;;7.25;;
81392;SDS011;71503;47.056;15.444;2023-07-16T02:26:14;8.77;;;6.75;;
81392;SDS011;71503;47.056;15.444;2023-07-16T02:28:40;9.57;;;6.03;;
81392;SDS011;71503;47.056;15.444;2023-07-16T02:31:06;9.63;;;6.88;;
81392;SDS011;71503;47.056;15.444;2023-07-16T02:33:32;8.07;;;6.25;;
81392;SDS011;71503;47.056;15.444;2023-07-16T02:35:58;11.13;;;7.18;;
81392;SDS011;71503;47.056;15.444;2023-07-16T02:38:24;7.07;;;6.28;;
81392;SDS011;71503;47.056;15.444;2023-07-16T02:40:53;9.00;;;6.20;;
81392;SDS011;71503;47.056;15.444;2023-07-16T02:43:18;7.93;;;6.68;;
81392;SDS011;71503;47.056;15.444;2023-07-16T02:45:45;8.32;;;6.18;;
81392;SDS011;71503;47.056;15.444;2023-07-16T02:48:11;9.77;;;6.13;;
81392;SDS011;71503;47.056;15.444;2023-07-16T02:50:37;8.88;;;6.88;;
81392;SDS011;71503;47.056;15.444;2023-07-16T02:53:06;9.95;;;6.63;;
81392;SDS011;71503;47.056;15.444;2023-07-16T02:55:34;9.30;;;6.68;;
81392;SDS011;71503;47.056;15.444;2023-07-16T02:58:00;9.23;;;6.32;;
81392;SDS011;71503;47.056;15.444;2023-07-16T03:00:32;9.18;;;6.55;;
81392;SDS011;71503;47.056;15.444;2023-07-16T03:02:59;7.93;;;5.93;;
81392;SDS011;71503;47.056;15.444;2023-07-16T03:05:28;9.57;;;6.75;;
81392;SDS011;71503;47.056;15.444;2023-07-16T03:07:54;7.90;;;6.13;;
81392;SDS011;71503;47.056;15.444;2023-07-16T03:10:20;8.95;;;6.20;;
81392;SDS011;71503;47.056;15.444;2023-07-16T03:12:48;10.10;;;6.20;;
81392;SDS011;71503;47.056;15.444;2023-07-16T03:15:14;9.00;;;6.50;;
81392;SDS011;71503;47.056;15.444;2023-07-16T03:17:40;8.45;;;6.45;;
81392;SDS011;71503;47.056;15.444;2023-07-16T03:20:06;15.27;;;6.53;;
81392;SDS011;71503;47.056;15.444;2023-07-16T03:22:33;9.68;;;6.93;;
81392;SDS011;71503;47.056;15.444;2023-07-16T03:24:59;9.20;;;6.90;;
81392;SDS011;71503;47.056;15.444;2023-07-16T03:27:25;9.65;;;6.55;;
81392;SDS011;71503;47.056;15.444;2023-07-16T03:29:51;8.95;;;6.30;;
81392;SDS011;71503;47.056;15.444;2023-07-16T03:32:17;10.52;;;6.80;;
81392;SDS011;71503;47.056;15.444;2023-07-16T03:34:42;9.10;;;6.70;;
81392;SDS011;71503;47.056;15.444;2023-07-16T03:37:08;7.10;;;5.45;;
81392;SDS011;71503;47.056;15.444;2023-07-16T03:39:34;11.07;;;6.43;;
81392;SDS011;71503;47.056;15.444;2023-07-16T03:42:00;7.43;;;5.80;;
81392;SDS011;71503;47.056;15.444;2023-07-16T03:44:26;7.38;;;6.43;;
81392;SDS011;71503;47.056;15.444;2023-07-16T03:46:52;9.85;;;7.18;;
81392;SDS011;71503;47.056;15.444;2023-07-16T03:49:18;9.50;;;6.40;;
81392;SDS011;71503;47.056;15.444;2023-07-16T03:51:44;9.23;;;6.00;;
81392;SDS011;71503;47.056;15.444;2023-07-16T03:54:10;9.43;;;6.40;;
81392;SDS011;71503;47.056;15.444;2023-07-16T03:56:35;9.07;;;6.70;;
81392;SDS011;71503;47.056;15.444;2023-07-16T03:59:01;10.15;;;6.70;;
81392;SDS011;71503;47.056;15.444;2023-07-16T04:01:27;12.93;;;6.45;;
81392;SDS011;71503;47.056;15.444;2023-07-16T04:03:53;8.82;;;6.00;;
81392;SDS011;71503;47.056;15.444;2023-07-16T04:06:19;10.25;;;6.55;;
81392;SDS011;71503;47.056;15.444;2023-07-16T04:08:45;8.07;;;6.20;;
81392;SDS011;71503;47.056;15.444;2023-07-16T04:11:11;9.68;;;6.15;;
81392;SDS011;71503;47.056;15.444;2023-07-16T04:13:37;10.80;;;6.97;;
81392;SDS011;71503;47.056;15.444;2023-07-16T04:16:03;8.80;;;6.63;;
81392;SDS011;71503;47.056;15.444;2023-07-16T04:18:29;8.07;;;6.22;;
81392;SDS011;71503;47.056;15.444;2023-07-16T04:20:55;9.77;;;6.20;;
81392;SDS011;71503;47.056;15.444;2023-07-16T04:23:21;7.53;;;6.60;;
81392;SDS011;71503;47.056;15.444;2023-07-16T04:25:51;8.32;;;6.45;;
81392;SDS011;71503;47.056;15.444;2023-07-16T04:28:18;6.85;;;6.05;;
81392;SDS011;71503;47.056;15.444;2023-07-16T04:30:44;8.77;;;6.43;;
81392;SDS011;71503;47.056;15.444;2023-07-16T04:33:10;8.90;;;5.93;;
81392;SDS011;71503;47.056;15.444;2023-07-16T04:35:36;9.15;;;6.30;;
81392;SDS011;71503;47.056;15.444;2023-07-16T04:38:02;7.38;;;5.72;;
81392;SDS011;71503;47.056;15.444;2023-07-16T04:40:31;6.07;;;5.47;;
81392;SDS011;71503;47.056;15.444;2023-07-16T04:42:57;7.70;;;6.10;;
81392;SDS011;71503;47.056;15.444;2023-07-16T04:45:23;8.00;;;6.10;;
81392;SDS011;71503;47.056;15.444;2023-07-16T04:47:48;7.97;;;5.68;;
81392;SDS011;71503;47.056;15.444;2023-07-16T04:50:14;6.10;;;5.32;;
81392;SDS011;71503;47.056;15.444;2023-07-16T04:52:40;6.68;;;5.40;;
81392;SDS011;71503;47.056;15.444;2023-07-16T04:55:06;8.95;;;6.00;;
81392;SDS011;71503;47.056;15.444;2023-07-16T04:57:33;7.38;;;5.93;;
81392;SDS011;71503;47.056;15.444;2023-07-16T04:59:59;8.40;;;6.18;;
81392;SDS011;71503;47.056;15.444;2023-07-16T05:02:25;9.90;;;6.20;;
81392;SDS011;71503;47.056;15.444;2023-07-16T05:04:50;6.90;;;6.03;;
81392;SDS011;71503;47.056;15.444;2023-07-16T05:07:16;7.65;;;6.22;;
81392;SDS011;71503;47.056;15.444;2023-07-16T05:09:43;11.05;;;6.43;;
81392;SDS011;71503;47.056;15.444;2023-07-16T05:12:09;7.00;;;5.82;;
81392;SDS011;71503;47.056;15.444;2023-07-16T05:14:43;11.25;;;6.00;;
81392;SDS011;71503;47.056;15.444;2023-07-16T05:17:11;6.95;;;5.55;;
81392;SDS011;71503;47.056;15.444;2023-07-16T05:19:38;8.65;;;6.05;;
81392;SDS011;71503;47.056;15.444;2023-07-16T05:22:04;8.50;;;6.13;;
81392;SDS011;71503;47.056;15.444;2023-07-16T05:24:31;8.48;;;5.20;;
81392;SDS011;71503;47.056;15.444;2023-07-16T05:26:57;6.55;;;5.78;;
81392;SDS011;71503;47.056;15.444;2023-07-16T05:29:23;7.93;;;5.40;;
81392;SDS011;71503;47.056;15.444;2023-07-16T05:31:49;8.77;;;5.95;;
81392;SDS011;71503;47.056;15.444;2023-07-16T05:34:15;7.70;;;5.80;;
81392;SDS011;71503;47.056;15.444;2023-07-16T05:36:42;6.65;;;5.13;;
81392;SDS011;71503;47.056;15.444;2023-07-16T05:41:39;8.55;;;6.00;;
81392;SDS011;71503;47.056;15.444;2023-07-16T05:44:06;10.60;;;5.57;;
81392;SDS011;71503;47.056;15.444;2023-07-16T05:46:33;7.50;;;6.28;;
81392;SDS011;71503;47.056;15.444;2023-07-16T05:48:59;9.05;;;5.65;;
81392;SDS011;71503;47.056;15.444;2023-07-16T05:51:25;6.88;;;5.53;;
81392;SDS011;71503;47.056;15.444;2023-07-16T05:53:51;6.90;;;5.65;;
81392;SDS011;71503;47.056;15.444;2023-07-16T05:56:17;10.40;;;5.78;;
81392;SDS011;71503;47.056;15.444;2023-07-16T05:58:43;7.38;;;5.82;;
81392;SDS011;71503;47.056;15.444;2023-07-16T06:01:09;9.32;;;6.50;;
81392;SDS011;71503;47.056;15.444;2023-07-16T06:03:35;8.43;;;5.68;;
81392;SDS011;71503;47.056;15.444;2023-07-16T06:06:01;6.93;;;5.50;;
81392;SDS011;71503;47.056;15.444;2023-07-16T06:08:28;6.45;;;5.85;;
81392;SDS011;71503;47.056;15.444;2023-07-16T06:10:53;9.07;;;5.57;;
81392;SDS011;71503;47.056;15.444;2023-07-16T06:13:20;6.68;;;5.32;;
81392;SDS011;71503;47.056;15.444;2023-07-16T06:15:49;6.68;;;5.38;;
81392;SDS011;71503;47.056;15.444;2023-07-16T06:18:15;7.85;;;6.00;;
81392;SDS011;71503;47.056;15.444;2023-07-16T06:20:44;8.52;;;5.85;;
81392;SDS011;71503;47.056;15.444;2023-07-16T06:23:14;10.70;;;6.63;;
81392;SDS011;71503;47.056;15.444;2023-07-16T06:25:42;6.82;;;5.50;;
81392;SDS011;71503;47.056;15.444;2023-07-16T06:28:12;6.28;;;5.43;;
81392;SDS011;71503;47.056;15.444;2023-07-16T06:30:38;6.32;;;5.28;;
81392;SDS011;71503;47.056;15.444;2023-07-16T06:33:04;8.32;;;5.85;;
81392;SDS011;71503;47.056;15.444;2023-07-16T06:35:30;8.13;;;5.00;;
81392;SDS011;71503;47.056;15.444;2023-07-16T06:37:56;6.65;;;5.68;;
81392;SDS011;71503;47.056;15.444;2023-07-16T06:40:22;8.50;;;5.57;;
81392;SDS011;71503;47.056;15.444;2023-07-16T06:42:49;6.28;;;4.95;;
81392;SDS011;71503;47.056;15.444;2023-07-16T06:45:15;6.10;;;4.88;;
81392;SDS011;71503;47.056;15.444;2023-07-16T06:47:42;6.03;;;5.10;;
81392;SDS011;71503;47.056;15.444;2023-07-16T06:50:08;6.30;;;4.97;;
81392;SDS011;71503;47.056;15.444;2023-07-16T06:52:35;7.03;;;4.90;;
81392;SDS011;71503;47.056;15.444;2023-07-16T06:55:00;6.63;;;5.38;;
81392;SDS011;71503;47.056;15.444;2023-07-16T06:57:26;6.32;;;4.97;;
81392;SDS011;71503;47.056;15.444;2023-07-16T06:59:52;6.70;;;4.47;;
81392;SDS011;71503;47.056;15.444;2023-07-16T07:02:18;7.53;;;4.32;;
81392;SDS011;71503;47.056;15.444;2023-07-16T07:04:45;5.63;;;4.85;;
81392;SDS011;71503;47.056;15.444;2023-07-16T07:07:11;7.25;;;4.60;;
81392;SDS011;71503;47.056;15.444;2023-07-16T07:09:37;6.10;;;4.18;;
81392;SDS011;71503;47.056;15.444;2023-07-16T07:12:03;5.70;;;4.50;;
81392;SDS011;71503;47.056;15.444;2023-07-16T07:14:29;5.07;;;3.85;;
81392;SDS011;71503;47.056;15.444;2023-07-16T07:16:55;6.55;;;3.90;;
81392;SDS011;71503;47.056;15.444;2023-07-16T07:19:21;4.68;;;4.00;;
81392;SDS011;71503;47.056;15.444;2023-07-16T07:21:47;4.40;;;3.72;;
81392;SDS011;71503;47.056;15.444;2023-07-16T07:24:13;5.00;;;3.85;;
81392;SDS011;71503;47.056;15.444;2023-07-16T07:26:39;4.50;;;3.95;;
81392;SDS011;71503;47.056;15.444;2023-07-16T07:29:05;5.00;;;3.85;;
81392;SDS011;71503;47.056;15.444;2023-07-16T07:31:30;5.72;;;3.67;;
81392;SDS011;71503;47.056;15.444;2023-07-16T07:33:56;5.25;;;3.80;;
81392;SDS011;71503;47.056;15.444;2023-07-16T07:36:23;4.97;;;3.72;;
81392;SDS011;71503;47.056;15.444;2023-07-16T07:38:49;4.38;;;3.38;;
81392;SDS011;71503;47.056;15.444;2023-07-16T07:41:15;4.68;;;3.60;;
81392;SDS011;71503;47.056;15.444;2023-07-16T07:43:42;5.28;;;4.00;;
81392;SDS011;71503;47.056;15.444;2023-07-16T07:46:08;4.00;;;3.60;;
81392;SDS011;71503;47.056;15.444;2023-07-16T07:48:35;4.28;;;3.38;;
81392;SDS011;71503;47.056;15.444;2023-07-16T07:51:01;5.53;;;4.15;;
81392;SDS011;71503;47.056;15.444;2023-07-16T07:53:27;4.25;;;3.55;;
81392;SDS011;71503;47.056;15.444;2023-07-16T07:55:53;5.63;;;3.75;;
81392;SDS011;71503;47.056;15.444;2023-07-16T07:58:19;4.53;;;3.53;;
81392;SDS011;71503;47.056;15.444;2023-07-16T08:00:45;4.20;;;3.80;;
81392;SDS011;71503;47.056;15.444;2023-07-16T08:03:11;5.07;;;3.55;;
81392;SDS011;71503;47.056;15.444;2023-07-16T08:05:37;5.72;;;3.80;;
81392;SDS011;71503;47.056;15.444;2023-07-16T08:08:03;4.82;;;3.55;;
81392;SDS011;71503;47.056;15.444;2023-07-16T08:10:29;6.60;;;3.70;;
81392;SDS011;71503;47.056;15.444;2023-07-16T08:12:55;4.78;;;3.65;;
81392;SDS011;71503;47.056;15.444;2023-07-16T08:15:21;5.45;;;3.80;;
81392;SDS011;71503;47.056;15.444;2023-07-16T08:17:47;8.43;;;4.43;;
81392;SDS011;71503;47.056;15.444;2023-07-16T08:20:13;4.60;;;3.50;;
81392;SDS011;71503;47.056;15.444;2023-07-16T08:22:39;5.68;;;3.85;;
81392;SDS011;71503;47.056;15.444;2023-07-16T08:25:06;4.78;;;3.97;;
81392;SDS011;71503;47.056;15.444;2023-07-16T08:27:33;6.55;;;3.78;;
81392;SDS011;71503;47.056;15.444;2023-07-16T08:30:00;5.55;;;3.63;;
81392;SDS011;71503;47.056;15.444;2023-07-16T08:32:25;4.10;;;3.30;;
81392;SDS011;71503;47.056;15.444;2023-07-16T08:34:52;6.57;;;3.80;;
81392;SDS011;71503;47.056;15.444;2023-07-16T08:37:18;4.50;;;3.85;;
81392;SDS011;71503;47.056;15.444;2023-07-16T08:39:44;4.00;;;3.50;;
81392;SDS011;71503;47.056;15.444;2023-07-16T08:42:10;5.53;;;3.60;;
81392;SDS011;71503;47.056;15.444;2023-07-16T08:44:37;5.07;;;4.18;;
81392;SDS011;71503;47.056;15.444;2023-07-16T08:47:05;4.13;;;3.72;;
81392;SDS011;71503;47.056;15.444;2023-07-16T08:49:32;4.18;;;3.40;;
81392;SDS011;71503;47.056;15.444;2023-07-16T08:51:59;4.78;;;3.58;;
81392;SDS011;71503;47.056;15.444;2023-07-16T08:54:27;4.13;;;3.72;;
81392;SDS011;71503;47.056;15.444;2023-07-16T08:56:53;4.03;;;3.38;;
81392;SDS011;71503;47.056;15.444;2023-07-16T08:59:22;5.72;;;4.20;;
81392;SDS011;71503;47.056;15.444;2023-07-16T09:01:49;4.50;;;4.00;;
81392;SDS011;71503;47.056;15.444;2023-07-16T09:04:15;5.47;;;3.85;;
81392;SDS011;71503;47.056;15.444;2023-07-16T09:06:42;6.20;;;4.25;;
81392;SDS011;71503;47.056;15.444;2023-07-16T09:09:22;4.35;;;3.92;;
81392;SDS011;71503;47.056;15.444;2023-07-16T09:11:49;5.72;;;4.13;;
81392;SDS011;71503;47.056;15.444;2023-07-16T09:14:16;5.75;;;4.10;;
81392;SDS011;71503;47.056;15.444;2023-07-16T09:16:52;7.53;;;4.55;;
81392;SDS011;71503;47.056;15.444;2023-07-16T09:19:19;7.03;;;5.18;;
81392;SDS011;71503;47.056;15.444;2023-07-16T09:21:46;5.03;;;4.35;;
81392;SDS011;71503;47.056;15.444;2023-07-16T09:24:16;5.10;;;4.60;;
81392;SDS011;71503;47.056;15.444;2023-07-16T09:26:54;6.38;;;4.80;;
81392;SDS011;71503;47.056;15.444;2023-07-16T09:29:20;5.75;;;4.13;;
81392;SDS011;71503;47.056;15.444;2023-07-16T09:34:20;4.90;;;4.00;;
81392;SDS011;71503;47.056;15.444;2023-07-16T09:36:49;5.05;;;4.15;;
81392;SDS011;71503;47.056;15.444;2023-07-16T09:39:16;5.60;;;4.57;;
81392;SDS011;71503;47.056;15.444;2023-07-16T09:41:47;4.80;;;4.07;;
81392;SDS011;71503;47.056;15.444;2023-07-16T09:44:14;7.10;;;4.90;;
81392;SDS011;71503;47.056;15.444;2023-07-16T09:46:41;5.63;;;4.43;;
81392;SDS011;71503;47.056;15.444;2023-07-16T09:49:08;4.47;;;3.70;;
81392;SDS011;71503;47.056;15.444;2023-07-16T09:51:35;4.15;;;3.75;;
81392;SDS011;71503;47.056;15.444;2023-07-16T09:54:03;4.45;;;4.05;;
81392;SDS011;71503;47.056;15.444;2023-07-16T09:56:37;5.75;;;4.88;;
81392;SDS011;71503;47.056;15.444;2023-07-16T09:59:11;8.25;;;6.80;;
81392;SDS011;71503;47.056;15.444;2023-07-16T10:01:40;7.60;;;5.47;;
81392;SDS011;71503;47.056;15.444;2023-07-16T10:04:13;4.53;;;3.97;;
81392;SDS011;71503;47.056;15.444;2023-07-16T10:06:59;4.85;;;4.15;;
81392;SDS011;71503;47.056;15.444;2023-07-16T10:09:41;4.85;;;3.85;;
81392;SDS011;71503;47.056;15.444;2023-07-16T10:12:16;4.28;;;3.88;;
81392;SDS011;71503;47.056;15.444;2023-07-16T10:14:51;5.80;;;4.55;;
81392;SDS011;71503;47.056;15.444;2023-07-16T10:17:22;5.45;;;4.18;;
81392;SDS011;71503;47.056;15.444;2023-07-16T10:19:56;4.80;;;4.03;;
81392;SDS011;71503;47.056;15.444;2023-07-16T10:25:03;5.00;;;3.90;;
81392;SDS011;71503;47.056;15.444;2023-07-16T10:27:50;6.50;;;4.32;;
81392;SDS011;71503;47.056;15.444;2023-07-16T10:30:17;4.90;;;3.72;;
81392;SDS011;71503;47.056;15.444;2023-07-16T10:32:44;5.88;;;4.45;;
81392;SDS011;71503;47.056;15.444;2023-07-16T10:35:11;5.57;;;4.20;;
81392;SDS011;71503;47.056;15.444;2023-07-16T10:37:38;6.40;;;4.00;;
81392;SDS011;71503;47.056;15.444;2023-07-16T10:40:05;4.80;;;4.30;;
81392;SDS011;71503;47.056;15.444;2023-07-16T10:42:37;4.35;;;3.80;;
81392;SDS011;71503;47.056;15.444;2023-07-16T10:45:06;5.47;;;4.93;;
81392;SDS011;71503;47.056;15.444;2023-07-16T10:47:34;7.32;;;4.22;;
81392;SDS011;71503;47.056;15.444;2023-07-16T10:52:34;4.63;;;4.10;;
81392;SDS011;71503;47.056;15.444;2023-07-16T10:55:01;4.65;;;4.03;;
81392;SDS011;71503;47.056;15.444;2023-07-16T10:57:28;5.22;;;4.40;;
81392;SDS011;71503;47.056;15.444;2023-07-16T10:59:55;5.63;;;4.28;;
81392;SDS011;71503;47.056;15.444;2023-07-16T11:02:22;5.22;;;4.05;;
81392;SDS011;71503;47.056;15.444;2023-07-16T11:04:50;4.30;;;3.90;;
81392;SDS011;71503;47.056;15.444;2023-07-16T11:07:19;4.93;;;4.43;;
81392;SDS011;71503;47.056;15.444;2023-07-16T11:09:51;5.00;;;4.38;;
81392;SDS011;71503;47.056;15.444;2023-07-16T11:12:20;4.63;;;4.20;;
81392;SDS011;71503;47.056;15.444;2023-07-16T11:14:54;4.78;;;4.30;;
81392;SDS011;71503;47.056;15.444;2023-07-16T11:17:23;5.22;;;4.53;;
81392;SDS011;71503;47.056;15.444;2023-07-16T11:19:50;4.25;;;3.85;;
81392;SDS011;71503;47.056;15.444;2023-07-16T11:22:18;6.05;;;3.92;;
81392;SDS011;71503;47.056;15.444;2023-07-16T11:24:45;4.80;;;4.30;;
81392;SDS011;71503;47.056;15.444;2023-07-16T11:27:19;4.38;;;3.97;;
81392;SDS011;71503;47.056;15.444;2023-07-16T11:29:48;5.22;;;4.35;;
81392;SDS011;71503;47.056;15.444;2023-07-16T11:32:32;4.80;;;4.15;;
81392;SDS011;71503;47.056;15.444;2023-07-16T11:35:01;4.38;;;3.97;;
81392;SDS011;71503;47.056;15.444;2023-07-16T11:37:32;4.90;;;4.40;;
81392;SDS011;71503;47.056;15.444;2023-07-16T11:40:03;5.00;;;3.90;;
81392;SDS011;71503;47.056;15.444;2023-07-16T11:42:32;5.40;;;4.13;;
81392;SDS011;71503;47.056;15.444;2023-07-16T11:45:00;5.65;;;4.40;;
81392;SDS011;71503;47.056;15.444;2023-07-16T11:47:26;4.47;;;4.03;;
81392;SDS011;71503;47.056;15.444;2023-07-16T11:49:53;6.30;;;4.13;;
81392;SDS011;71503;47.056;15.444;2023-07-16T11:52:20;4.47;;;4.03;;
81392;SDS011;71503;47.056;15.444;2023-07-16T11:54:48;4.35;;;3.95;;
81392;SDS011;71503;47.056;15.444;2023-07-16T11:57:15;5.53;;;4.18;;
81392;SDS011;71503;47.056;15.444;2023-07-16T11:59:41;4.50;;;4.10;;
81392;SDS011;71503;47.056;15.444;2023-07-16T12:02:07;5.53;;;4.30;;
81392;SDS011;71503;47.056;15.444;2023-07-16T12:04:34;5.55;;;4.10;;
81392;SDS011;71503;47.056;15.444;2023-07-16T12:07:00;5.72;;;4.63;;
81392;SDS011;71503;47.056;15.444;2023-07-16T12:09:26;5.35;;;4.20;;
81392;SDS011;71503;47.056;15.444;2023-07-16T12:11:52;5.10;;;4.43;;
81392;SDS011;71503;47.056;15.444;2023-07-16T12:14:18;4.80;;;4.15;;
81392;SDS011;71503;47.056;15.444;2023-07-16T12:16:44;4.63;;;3.92;;
81392;SDS011;71503;47.056;15.444;2023-07-16T12:19:10;4.88;;;4.30;;
81392;SDS011;71503;47.056;15.444;2023-07-16T12:21:36;4.85;;;4.32;;
81392;SDS011;71503;47.056;15.444;2023-07-16T12:24:03;4.57;;;4.18;;
81392;SDS011;71503;47.056;15.444;2023-07-16T12:26:29;4.72;;;4.13;;
81392;SDS011;71503;47.056;15.444;2023-07-16T12:28:55;5.57;;;4.15;;
81392;SDS011;71503;47.056;15.444;2023-07-16T12:31:21;5.20;;;4.07;;
81392;SDS011;71503;47.056;15.444;2023-07-16T12:33:47;6.68;;;4.25;;
81392;SDS011;71503;47.056;15.444;2023-07-16T12:36:14;5.43;;;4.88;;
81392;SDS011;71503;47.056;15.444;2023-07-16T12:38:40;4.70;;;4.22;;
81392;SDS011;71503;47.056;15.444;2023-07-16T12:41:07;5.25;;;4.32;;
81392;SDS011;71503;47.056;15.444;2023-07-16T12:43:33;4.65;;;4.00;;
81392;SDS011;71503;47.056;15.444;2023-07-16T12:46:03;4.70;;;3.92;;
81392;SDS011;71503;47.056;15.444;2023-07-16T12:48:30;4.72;;;4.10;;
81392;SDS011;71503;47.056;15.444;2023-07-16T12:50:57;4.75;;;4.25;;
81392;SDS011;71503;47.056;15.444;2023-07-16T12:53:23;4.50;;;3.85;;
81392;SDS011;71503;47.056;15.444;2023-07-16T12:55:51;4.88;;;4.03;;
81392;SDS011;71503;47.056;15.444;2023-07-16T12:58:17;5.03;;;3.88;;
81392;SDS011;71503;47.056;15.444;2023-07-16T13:00:44;4.63;;;4.22;;
81392;SDS011;71503;47.056;15.444;2023-07-16T13:03:10;4.55;;;3.85;;
81392;SDS011;71503;47.056;15.444;2023-07-16T13:05:37;6.10;;;3.88;;
81392;SDS011;71503;47.056;15.444;2023-07-16T13:08:04;6.45;;;4.93;;
81392;SDS011;71503;47.056;15.444;2023-07-16T13:10:30;4.75;;;4.32;;
81392;SDS011;71503;47.056;15.444;2023-07-16T13:12:56;5.78;;;4.47;;
81392;SDS011;71503;47.056;15.444;2023-07-16T13:15:22;4.90;;;4.40;;
81392;SDS011;71503;47.056;15.444;2023-07-16T13:17:48;7.10;;;4.55;;
81392;SDS011;71503;47.056;15.444;2023-07-16T13:20:15;7.10;;;4.25;;
81392;SDS011;71503;47.056;15.444;2023-07-16T13:22:41;4.65;;;4.20;;
81392;SDS011;71503;47.056;15.444;2023-07-16T13:25:07;5.30;;;4.40;;
81392;SDS011;71503;47.056;15.444;2023-07-16T13:27:34;4.15;;;3.75;;
81392;SDS011;71503;47.056;15.444;2023-07-16T13:30:00;4.72;;;4.22;;
81392;SDS011;71503;47.056;15.444;2023-07-16T13:32:26;6.50;;;3.92;;
81392;SDS011;71503;47.056;15.444;2023-07-16T13:34:53;5.68;;;4.50;;
81392;SDS011;71503;47.056;15.444;2023-07-16T13:37:19;5.38;;;4.68;;
81392;SDS011;71503;47.056;15.444;2023-07-16T13:39:45;6.55;;;4.32;;
81392;SDS011;71503;47.056;15.444;2023-07-16T13:42:11;6.28;;;4.60;;
81392;SDS011;71503;47.056;15.444;2023-07-16T13:44:37;5.00;;;4.47;;
81392;SDS011;71503;47.056;15.444;2023-07-16T13:47:03;9.20;;;5.68;;
81392;SDS011;71503;47.056;15.444;2023-07-16T13:49:29;4.93;;;4.20;;
81392;SDS011;71503;47.056;15.444;2023-07-16T13:51:55;5.10;;;4.60;;
81392;SDS011;71503;47.056;15.444;2023-07-16T13:54:21;7.07;;;5.28;;
81392;SDS011;71503;47.056;15.444;2023-07-16T13:56:50;6.28;;;5.40;;
81392;SDS011;71503;47.056;15.444;2023-07-16T13:59:16;5.43;;;4.93;;
81392;SDS011;71503;47.056;15.444;2023-07-16T14:01:42;5.15;;;4.57;;
81392;SDS011;71503;47.056;15.444;2023-07-16T14:04:08;8.27;;;5.60;;
81392;SDS011;71503;47.056;15.444;2023-07-16T14:06:34;5.65;;;4.85;;
81392;SDS011;71503;47.056;15.444;2023-07-16T14:09:00;5.25;;;4.60;;
81392;SDS011;71503;47.056;15.444;2023-07-16T14:11:27;6.20;;;4.93;;
81392;SDS011;71503;47.056;15.444;2023-07-16T14:13:53;5.72;;;5.20;;
81392;SDS011;71503;47.056;15.444;2023-07-16T14:16:22;5.13;;;4.70;;
81392;SDS011;71503;47.056;15.444;2023-07-16T14:18:50;5.60;;;4.57;;
81392;SDS011;71503;47.056;15.444;2023-07-16T14:21:18;5.63;;;5.07;;
81392;SDS011;71503;47.056;15.444;2023-07-16T14:23:44;5.40;;;4.90;;
81392;SDS011;71503;47.056;15.444;2023-07-16T14:26:10;6.20;;;5.20;;
81392;SDS011;71503;47.056;15.444;2023-07-16T14:28:36;6.45;;;5.85;;
81392;SDS011;71503;47.056;15.444;2023-07-16T14:31:02;6.13;;;5.53;;
81392;SDS011;71503;47.056;15.444;2023-07-16T14:33:28;5.68;;;5.18;;
81392;SDS011;71503;47.056;15.444;2023-07-16T14:35:54;5.43;;;4.93;;
81392;SDS011;71503;47.056;15.444;2023-07-16T14:38:20;5.53;;;4.88;;
81392;SDS011;71503;47.056;15.444;2023-07-16T14:40:46;7.18;;;4.70;;
81392;SDS011;71503;47.056;15.444;2023-07-16T14:43:13;6.00;;;5.32;;
81392;SDS011;71503;47.056;15.444;2023-07-16T14:45:39;8.25;;;5.55;;
81392;SDS011;71503;47.056;15.444;2023-07-16T14:48:05;8.18;;;5.32;;
81392;SDS011;71503;47.056;15.444;2023-07-16T14:50:31;5.28;;;4.57;;